createdAt,value
2022-09-28T00:01:42.473Z,4.7
2022-09-28T00:07:26.162Z,4.1
2022-09-28T00:13:09.631Z,2.3
2022-09-28T00:18:53.451Z,3
2022-09-28T00:24:36.871Z,2.8
2022-09-28T00:30:20.388Z,2.4
2022-09-28T00:36:04.127Z,1.7
2022-09-28T00:41:48.340Z,2.8
2022-09-28T00:47:43.265Z,2.8
2022-09-28T00:53:28.687Z,2.2
2022-09-28T00:59:12.391Z,4.2
2022-09-28T01:04:56.055Z,3.8
2022-09-28T01:10:39.545Z,4
2022-09-28T01:16:28.754Z,4.1
2022-09-28T01:22:19.446Z,3.1
2022-09-28T01:28:06.795Z,3.4
2022-09-28T01:33:52.713Z,4.3
2022-09-28T01:39:37.254Z,3.3
2022-09-28T01:45:24.351Z,4.2
2022-09-28T01:51:12.571Z,4.8
2022-09-28T01:56:57.871Z,4.8
2022-09-28T02:02:42.618Z,3.9
2022-09-28T02:08:29.210Z,3.8
2022-09-28T02:14:13.559Z,4.8
2022-09-28T02:19:57.846Z,6.8
2022-09-28T02:25:42.633Z,6.5
2022-09-28T02:31:26.095Z,7.8
2022-09-28T02:37:09.567Z,7.1
2022-09-28T02:42:55.099Z,8.2
2022-09-28T02:49:20.708Z,6.7
2022-09-28T02:55:04.809Z,6
2022-09-28T03:00:54.369Z,5.3
2022-09-28T03:06:42.369Z,5.7
2022-09-28T03:12:27.103Z,3.9
2022-09-28T03:18:10.550Z,5.2
2022-09-28T03:23:53.778Z,4.5
2022-09-28T03:29:36.879Z,5.3
2022-09-28T03:35:20.301Z,3.9
2022-09-28T03:41:04.238Z,3.8
2022-09-28T03:46:48.722Z,4.5
2022-09-28T03:52:31.903Z,4.1
2022-09-28T03:58:15.146Z,4.8
2022-09-28T04:03:59.351Z,4.9
2022-09-28T04:09:43.269Z,4.1
2022-09-28T04:15:27.767Z,5.4
2022-09-28T04:21:13.505Z,5
2022-09-28T04:26:56.801Z,5.5
2022-09-28T04:32:39.893Z,5
2022-09-28T04:38:52.177Z,6.1
2022-09-28T04:44:26.090Z,4.9
2022-09-28T04:50:10.919Z,5.4
2022-09-28T04:56:02.301Z,5.7
2022-09-28T05:01:45.516Z,6
2022-09-28T05:07:28.916Z,6.9
2022-09-28T05:13:12.787Z,6.9
2022-09-28T05:18:56.485Z,8.3
2022-09-28T05:24:40.615Z,8.8
2022-09-28T05:30:23.953Z,5.8
2022-09-28T05:36:07.570Z,4.7
2022-09-28T05:41:50.780Z,5.6
2022-09-28T05:47:33.860Z,5.4
2022-09-28T05:53:17.326Z,6.2
2022-09-28T05:59:00.714Z,6.8
2022-09-28T06:04:43.911Z,5.7
2022-09-28T06:10:27.299Z,5.7
2022-09-28T06:16:10.937Z,7.1
2022-09-28T06:21:54.199Z,6.1
2022-09-28T06:27:37.407Z,6.1
2022-09-28T06:33:20.741Z,6.6
2022-09-28T06:39:03.903Z,6.2
2022-09-28T06:44:47.272Z,8.1
2022-09-28T06:50:31.541Z,7.7
2022-09-28T06:56:14.930Z,9.9
2022-09-28T07:01:58.114Z,7.4
2022-09-28T07:07:42.344Z,9.2
2022-09-28T07:13:50.168Z,10.6
2022-09-28T07:19:29.710Z,9.9
2022-09-28T07:25:13.163Z,10.6
2022-09-28T07:30:58.952Z,10.7
2022-09-28T07:36:42.241Z,10.5
2022-09-28T07:42:25.529Z,9.7
2022-09-28T07:48:09.823Z,11.7
2022-09-28T07:53:52.881Z,8.6
2022-09-28T07:59:36.124Z,10.5
2022-09-28T08:05:19.495Z,7.5
2022-09-28T08:11:02.852Z,9.1
2022-09-28T08:16:48.570Z,7.3
2022-09-28T08:22:34.325Z,10.6
2022-09-28T08:28:17.798Z,9.3
2022-09-28T08:34:01.231Z,7.7
2022-09-28T08:39:45.438Z,12
2022-09-28T08:45:29.464Z,10.1
2022-09-28T08:51:15.191Z,12.7
2022-09-28T08:57:01.536Z,10.5
2022-09-28T09:02:45.152Z,8.7
2022-09-28T09:08:37.052Z,8.3
2022-09-28T09:14:27.378Z,9.2
2022-09-28T09:20:16.334Z,9.7
2022-09-28T09:26:02.867Z,8.5
2022-09-28T09:31:54.143Z,7.9
2022-09-28T09:37:46.656Z,9.6
2022-09-28T09:43:40.374Z,10.1
2022-09-28T09:49:26.571Z,9.1
2022-09-28T09:55:15.071Z,7.9
2022-09-28T10:01:00.849Z,7.3
2022-09-28T10:06:44.614Z,5.4
2022-09-28T10:12:27.983Z,8.3
2022-09-28T10:18:13.377Z,7
2022-09-28T10:23:57.927Z,7
2022-09-28T10:29:48.187Z,6.7
2022-09-28T10:35:33.530Z,8
2022-09-28T10:41:17.172Z,8
2022-09-28T10:47:04.517Z,9.4
2022-09-28T10:52:47.718Z,7.9
2022-09-28T10:58:32.688Z,6
2022-09-28T11:04:21.331Z,4.6
2022-09-28T11:10:05.809Z,4.7
2022-09-28T11:15:48.992Z,3.6
2022-09-28T11:21:32.824Z,5.4
2022-09-28T11:27:21.670Z,7.7
2022-09-28T11:33:09.900Z,4.1
2022-09-28T11:38:58.025Z,4.1
2022-09-28T11:44:44.950Z,4.5
2022-09-28T11:50:33.378Z,3.1
2022-09-28T11:56:19.342Z,4.5
2022-09-28T12:02:06.049Z,3.3
2022-09-28T12:07:52.432Z,3
2022-09-28T12:13:37.476Z,2.8
2022-09-28T12:19:23.068Z,2.4
2022-09-28T12:25:09.236Z,2.7
2022-09-28T12:30:53.239Z,3.6
2022-09-28T12:36:43.619Z,4.3
2022-09-28T12:42:33.388Z,4.1
2022-09-28T12:48:30.499Z,2.2
2022-09-28T12:54:20.104Z,4.3
2022-09-28T13:00:06.982Z,3.2
2022-09-28T13:06:13.208Z,4.3
2022-09-28T13:12:07.969Z,6.2
2022-09-28T13:17:57.912Z,5.4
2022-09-28T13:23:43.279Z,4.7
2022-09-28T13:29:27.376Z,3
2022-09-28T13:35:15.200Z,6.3
2022-09-28T13:41:10.263Z,3.8
2022-09-28T13:46:59.395Z,4.6
2022-09-28T13:52:47.731Z,4.7
2022-09-28T13:58:33.031Z,3.8
2022-09-28T14:04:18.873Z,3.5
2022-09-28T14:10:19.471Z,2.7
2022-09-28T14:16:11.970Z,3.4
2022-09-28T14:22:12.291Z,2.5
2022-09-28T14:28:11.098Z,2.9
2022-09-28T14:34:01.005Z,3
2022-09-28T14:39:46.338Z,3.1
2022-09-28T14:45:40.966Z,3.1
2022-09-28T14:51:36.177Z,2
2022-09-28T14:57:23.029Z,4.9
2022-09-28T15:03:14.138Z,2.6
2022-09-28T15:08:57.301Z,3.8
2022-09-28T15:14:45.466Z,2.4
2022-09-28T15:20:30.145Z,3.3
2022-09-28T15:26:23.296Z,1.8
2022-09-28T15:32:06.498Z,3.5
2022-09-28T15:37:50.586Z,2
2022-09-28T15:43:35.138Z,2.5
2022-09-28T15:49:26.987Z,2.3
2022-09-28T15:55:19.230Z,2.9
2022-09-28T16:01:13.361Z,2.9
2022-09-28T16:07:10.348Z,2.1
2022-09-28T16:12:54.337Z,2
2022-09-28T16:18:41.443Z,2.2
2022-09-28T16:24:27.318Z,2.3
2022-09-28T16:30:21.027Z,2.1
2022-09-28T16:36:04.734Z,2.3
2022-09-28T16:41:50.941Z,2.6
2022-09-28T16:47:34.581Z,2.6
2022-09-28T16:53:18.600Z,3.1
2022-09-28T16:59:01.797Z,5.6
2022-09-28T17:04:50.055Z,3.7
2022-09-28T17:11:12.854Z,2.1
2022-09-28T17:17:08.018Z,2.8
2022-09-28T17:22:43.858Z,2.8
2022-09-28T17:28:28.776Z,3
2022-09-28T17:34:14.554Z,2.7
2022-09-28T17:39:57.717Z,4.9
2022-09-28T17:45:41.646Z,4.1
2022-09-28T17:51:24.743Z,3.9
2022-09-28T17:57:08.608Z,5.1
2022-09-28T18:02:53.553Z,3.5
2022-09-28T18:08:36.969Z,6.3
2022-09-28T18:14:20.101Z,3.8
2022-09-28T18:20:03.482Z,6
2022-09-28T18:25:47.410Z,4
2022-09-28T18:31:30.858Z,4.7
2022-09-28T18:37:14.353Z,4.3
2022-09-28T18:42:57.584Z,5.8
2022-09-28T18:48:41.115Z,6.4
2022-09-28T18:54:24.461Z,5.3
2022-09-28T19:00:10.887Z,6.1
2022-09-28T19:05:55.430Z,3.7
2022-09-28T19:11:39.026Z,6.1
2022-09-28T19:17:22.447Z,4
2022-09-28T19:23:05.486Z,4.4
2022-09-28T19:28:49.096Z,4.7
2022-09-28T19:34:32.319Z,4.9
2022-09-28T19:40:16.371Z,4.6
2022-09-28T19:46:04.977Z,4.9
2022-09-28T19:52:18.967Z,5.1
2022-09-28T19:57:51.899Z,4.5
2022-09-28T20:03:35.156Z,4.1
2022-09-28T20:09:18.683Z,4.9
2022-09-28T20:15:02.140Z,4.9
2022-09-28T20:20:45.507Z,4.8
2022-09-28T20:26:29.285Z,3.6
2022-09-28T20:32:12.498Z,4.8
2022-09-28T20:37:56.971Z,4.3
2022-09-28T20:43:40.039Z,4.8
2022-09-28T20:49:23.228Z,5.1
2022-09-28T20:55:06.583Z,6.9
2022-09-28T21:00:50.725Z,5.8
2022-09-28T21:06:35.551Z,8.2
2022-09-28T21:12:18.703Z,4.4
2022-09-28T21:18:01.823Z,5.1
2022-09-28T21:23:45.130Z,5.7
2022-09-28T21:29:28.277Z,4.2
2022-09-28T21:35:11.858Z,5.6
2022-09-28T21:41:00.999Z,6
2022-09-28T21:46:44.645Z,4.5
2022-09-28T21:52:28.031Z,5.5
2022-09-28T21:58:11.182Z,4.8
2022-09-28T22:03:54.964Z,5.5
2022-09-28T22:09:37.986Z,5.3
2022-09-28T22:15:21.138Z,5.1
2022-09-28T22:21:05.195Z,6.4
2022-09-28T22:26:48.843Z,5.5
2022-09-28T22:32:31.887Z,5.7
2022-09-28T22:38:15.053Z,7.6
2022-09-28T22:43:58.402Z,6.8
2022-09-28T22:49:41.759Z,6.1
2022-09-28T22:55:24.939Z,6.8
2022-09-28T23:01:12.630Z,5.7
2022-09-28T23:06:55.797Z,6.4
2022-09-28T23:12:39.028Z,6.4
2022-09-28T23:18:22.502Z,9
2022-09-28T23:24:05.738Z,6.9
2022-09-28T23:29:48.956Z,6.7
2022-09-28T23:35:32.129Z,6.4
2022-09-28T23:41:15.451Z,8.3
2022-09-28T23:46:58.967Z,7.3
2022-09-28T23:52:42.241Z,7.4
2022-09-28T23:58:25.375Z,8
